createdAt,value
2022-10-18T00:06:43.673Z,3.10
2022-10-18T00:16:43.239Z,3.00
2022-10-18T00:26:43.034Z,2.50
2022-10-18T00:33:18.758Z,4.50
2022-10-18T00:42:14.294Z,2.40
2022-10-18T00:52:14.689Z,2.80
2022-10-18T01:02:14.338Z,3.00
2022-10-18T01:12:14.721Z,2.90
2022-10-18T01:22:12.996Z,2.40
2022-10-18T01:32:14.697Z,2.10
2022-10-18T01:42:13.018Z,2.40
2022-10-18T01:52:12.766Z,1.90
2022-10-18T02:02:13.484Z,2.90
2022-10-18T02:12:13.100Z,2.80
2022-10-18T02:22:14.197Z,3.20
2022-10-18T02:32:14.003Z,3.10
2022-10-18T02:42:13.138Z,3.00
2022-10-18T02:52:13.286Z,3.20
2022-10-18T03:02:13.779Z,3.20
2022-10-18T03:12:12.551Z,3.10
2022-10-18T03:22:13.289Z,3.00
2022-10-18T03:32:13.271Z,4.10
2022-10-18T03:42:12.486Z,3.90
2022-10-18T03:52:12.160Z,4.50
2022-10-18T04:02:12.791Z,4.50
2022-10-18T04:12:12.796Z,5.40
2022-10-18T04:22:12.183Z,5.70
2022-10-18T04:32:11.349Z,4.20
2022-10-18T04:42:12.324Z,6.70
2022-10-18T04:52:11.465Z,4.00
2022-10-18T05:02:10.947Z,5.40
2022-10-18T05:12:10.975Z,5.50
2022-10-18T05:22:12.401Z,4.40
2022-10-18T05:32:10.307Z,7.80
2022-10-18T05:42:10.282Z,5.30
2022-10-18T05:52:10.203Z,6.60
2022-10-18T06:02:10.162Z,5.10
2022-10-18T06:12:10.076Z,7.20
2022-10-18T06:22:10.067Z,5.80
2022-10-18T06:32:09.990Z,4.50
2022-10-18T06:42:09.948Z,6.50
2022-10-18T06:52:11.340Z,6.10
2022-10-18T07:02:10.414Z,5.70
2022-10-18T07:12:09.653Z,6.10
2022-10-18T07:22:09.654Z,7.10
2022-10-18T07:32:09.555Z,8.30
2022-10-18T07:42:09.218Z,6.00
2022-10-18T07:52:09.005Z,6.40
2022-10-18T08:02:08.987Z,7.40
2022-10-18T08:12:08.896Z,8.60
2022-10-18T08:22:08.848Z,9.90
2022-10-18T08:32:08.744Z,9.80
2022-10-18T08:42:08.667Z,12.30
2022-10-18T08:52:08.588Z,11.10
2022-10-18T09:02:08.540Z,7.60
2022-10-18T09:12:08.459Z,10.60
2022-10-18T09:30:49.745Z,8.00
2022-10-18T10:07:35.495Z,4.20
2022-10-18T10:26:27.268Z,4.70
2022-10-18T10:37:06.743Z,4.90
2022-10-18T11:27:21.681Z,3.30
2022-10-18T11:53:40.489Z,3.10
2022-10-18T12:03:40.791Z,2.60
2022-10-18T12:13:40.808Z,2.40
2022-10-18T12:23:39.519Z,4.00
2022-10-18T12:33:41.051Z,2.10
2022-10-18T12:43:39.779Z,2.90
2022-10-18T12:53:40.604Z,2.40
2022-10-18T13:03:39.533Z,2.90
2022-10-18T13:13:40.819Z,1.40
2022-10-18T13:23:40.443Z,2.10
2022-10-18T13:33:39.547Z,1.70
2022-10-18T13:43:38.645Z,1.60
2022-10-18T13:53:40.191Z,1.70
2022-10-18T14:13:39.866Z,1.30
2022-10-18T14:23:39.902Z,1.40
2022-10-18T14:33:39.428Z,1.70
2022-10-18T14:43:38.589Z,2.40
2022-10-18T14:53:39.575Z,1.00
2022-10-18T15:03:39.133Z,1.40
2022-10-18T15:13:39.109Z,0.70
2022-10-18T15:23:39.121Z,1.30
2022-10-18T15:33:37.743Z,1.60
2022-10-18T15:43:37.322Z,0.60
2022-10-18T15:53:37.299Z,1.30
2022-10-18T16:03:38.149Z,1.30
2022-10-18T16:13:38.828Z,1.50
2022-10-18T16:23:38.404Z,1.20
2022-10-18T16:33:38.408Z,0.90
2022-10-18T16:43:38.451Z,0.90
2022-10-18T16:53:37.492Z,1.30
2022-10-18T17:03:37.592Z,1.30
2022-10-18T17:13:37.210Z,1.10
2022-10-18T17:23:37.659Z,1.40
2022-10-18T17:33:37.717Z,2.60
2022-10-18T17:43:37.740Z,2.10
2022-10-18T17:53:36.722Z,6.20
2022-10-18T18:03:37.230Z,5.70
2022-10-18T18:13:37.271Z,3.60
2022-10-18T18:23:36.225Z,2.90
2022-10-18T18:33:35.634Z,4.10
2022-10-18T18:43:35.544Z,5.70
2022-10-18T18:53:35.527Z,6.80
2022-10-18T19:03:35.494Z,3.30
2022-10-18T19:13:35.353Z,2.10
2022-10-18T19:23:35.394Z,4.20
2022-10-18T19:33:47.934Z,8.30
2022-10-18T19:43:35.762Z,3.40
2022-10-18T19:53:34.748Z,3.20
2022-10-18T20:03:34.810Z,2.60
2022-10-18T20:13:34.951Z,1.30
2022-10-18T20:23:34.673Z,2.10
2022-10-18T20:33:34.446Z,2.20
2022-10-18T20:43:34.170Z,1.40
2022-10-18T20:53:34.157Z,3.30
2022-10-18T21:03:34.084Z,3.40
2022-10-18T21:13:34.036Z,2.40
2022-10-18T21:23:34.005Z,2.40
2022-10-18T21:33:33.951Z,4.70
2022-10-18T21:43:33.904Z,4.40
2022-10-18T21:53:33.445Z,4.90
2022-10-18T22:03:34.123Z,5.50
2022-10-18T22:13:33.496Z,4.20
2022-10-18T22:23:33.110Z,3.60
2022-10-18T22:33:33.906Z,2.50
2022-10-18T22:43:33.242Z,3.20
2022-10-18T22:53:34.356Z,2.00
2022-10-18T23:03:32.786Z,1.60
2022-10-18T23:13:37.391Z,1.50
2022-10-18T23:23:33.841Z,2.20
2022-10-18T23:33:33.417Z,1.70
2022-10-18T23:43:33.397Z,1.40
2022-10-18T23:53:33.717Z,1.80
